Time;durP1;ratioP1;P1;durP2;ratioP2;P2;SDS_P1;SDS_P2;PMS_P1;PMS_P2;Temp;Humidity;BMP_temperature;BMP_pressure;BME280_temperature;BME280_humidity;BME280_pressure;Samples;Min_cycle;Max_cycle;Signal;HPM_P1;HPM_P2
2022/05/20 00:03:38;;;;;;;0.10;0.10;;;;;;;-145.06;100.00;63404.56;10353064;28;20017;-69
2022/05/20 00:08:39;;;;;;;0.10;0.10;;;;;;;-145.06;100.00;63404.56;10352514;28;20084;-69
2022/05/20 00:13:39;;;;;;;0.10;0.10;;;;;;;-145.06;100.00;63404.56;10365696;28;20026;-69
2022/05/20 00:18:40;;;;;;;0.10;0.10;;;;;;;-145.06;100.00;63404.56;10352934;28;20076;-69
2022/05/20 00:23:40;;;;;;;0.10;0.10;;;;;;;-145.06;100.00;63404.56;10351963;28;20569;-69
2022/05/20 00:28:42;;;;;;;0.10;0.10;;;;;;;-145.06;100.00;63404.56;10352029;28;20022;-68
2022/05/20 00:33:42;;;;;;;0.10;0.10;;;;;;;-145.06;100.00;63404.56;10362903;28;20026;-68
2022/05/20 00:38:43;;;;;;;0.10;0.10;;;;;;;-145.06;100.00;63404.56;10354102;28;20034;-68
2022/05/20 00:43:48;;;;;;;0.10;0.10;;;;;;;-145.06;100.00;63404.56;10367222;28;20030;-68
2022/05/20 00:49:00;;;;;;;0.00;0.00;;;;;;;-145.06;100.00;63404.56;10348482;28;20461;-68
2022/05/20 00:54:09;;;;;;;0.10;0.10;;;;;;;-145.06;100.00;63404.56;10350807;28;20098;-68
2022/05/20 00:59:17;;;;;;;0.10;0.10;;;;;;;-145.06;100.00;63404.56;10352705;28;20112;-68
2022/05/20 01:04:20;;;;;;;0.10;0.10;;;;;;;-145.06;100.00;63404.56;10359909;28;20098;-68
2022/05/20 01:09:20;;;;;;;0.10;0.10;;;;;;;-145.06;100.00;63404.56;10353627;28;20105;-68
2022/05/20 01:14:23;;;;;;;0.10;0.10;;;;;;;-145.06;100.00;63404.56;10340045;28;20460;-68
2022/05/20 01:19:39;;;;;;;0.00;0.00;;;;;;;-145.06;100.00;63404.56;10368787;28;20276;-68
2022/05/20 01:24:40;;;;;;;0.10;0.10;;;;;;;-145.06;100.00;63404.56;10349400;28;20098;-68
2022/05/20 01:29:41;;;;;;;0.10;0.10;;;;;;;-145.06;100.00;63404.56;10366912;28;20022;-68
2022/05/20 01:34:41;;;;;;;0.10;0.10;;;;;;;-145.06;100.00;63404.56;10364103;28;20046;-68
2022/05/20 01:39:42;;;;;;;0.10;0.10;;;;;;;-145.06;100.00;63404.56;10341893;28;20025;-67
2022/05/20 01:44:50;;;;;;;0.10;0.10;;;;;;;-145.06;100.00;63404.56;10338806;28;20014;-67
2022/05/20 01:49:57;;;;;;;0.10;0.10;;;;;;;-145.06;100.00;63404.56;10357694;28;20544;-67
2022/05/20 01:55:22;;;;;;;0.10;0.10;;;;;;;-145.06;100.00;63404.56;10357511;28;20050;-67
2022/05/20 02:00:25;;;;;;;0.10;0.10;;;;;;;-145.06;100.00;63404.56;10341228;28;20045;-68
2022/05/20 02:05:34;;;;;;;0.10;0.10;;;;;;;-145.06;100.00;63404.56;10354593;28;20476;-67
2022/05/20 02:10:40;;;;;;;0.00;0.00;;;;;;;-145.06;100.00;63404.56;10367795;28;20075;-67
2022/05/20 02:15:49;;;;;;;0.13;0.13;;;;;;;-145.06;100.00;63404.56;10332238;28;20460;-67
2022/05/20 02:20:54;;;;;;;0.10;0.10;;;;;;;-145.06;100.00;63404.56;10350094;28;20026;-67
2022/05/20 02:26:00;;;;;;;0.13;0.13;;;;;;;-145.06;100.00;63404.56;10347110;28;20465;-67
2022/05/20 02:31:04;;;;;;;0.10;0.10;;;;;;;-145.06;100.00;63404.56;10356024;28;20073;-67
2022/05/20 02:36:08;;;;;;;0.10;0.10;;;;;;;-145.06;100.00;63404.56;10348410;28;20033;-67
2022/05/20 02:41:08;;;;;;;0.10;0.10;;;;;;;-145.06;100.00;63404.56;10341451;28;20038;-67
2022/05/20 02:46:09;;;;;;;0.10;0.10;;;;;;;-145.06;100.00;63404.56;10348061;28;20080;-66
2022/05/20 02:51:09;;;;;;;0.10;0.10;;;;;;;-145.06;100.00;63404.56;10350171;28;20018;-67
2022/05/20 02:56:10;;;;;;;0.10;0.10;;;;;;;-145.06;100.00;63404.56;10351521;28;20492;-67
2022/05/20 03:06:31;;;;;;;0.10;0.10;;;;;;;-145.06;100.00;63404.56;10347264;28;20025;-67
2022/05/20 03:11:34;;;;;;;0.10;0.10;;;;;;;-145.06;100.00;63404.56;10365802;28;20025;-67
2022/05/20 03:16:35;;;;;;;0.10;0.10;;;;;;;-145.06;100.00;63404.56;10359723;28;20115;-67
2022/05/20 03:21:37;;;;;;;0.10;0.10;;;;;;;-145.06;100.00;63404.56;10341320;28;20081;-67
2022/05/20 03:26:38;;;;;;;0.10;0.10;;;;;;;-145.06;100.00;63404.56;10351162;28;20025;-67
2022/05/20 03:31:39;;;;;;;0.10;0.10;;;;;;;-145.06;100.00;63404.56;10354748;28;20388;-67
2022/05/20 03:36:43;;;;;;;0.10;0.10;;;;;;;-145.06;100.00;63404.56;10343625;28;20269;-67
2022/05/20 03:41:43;;;;;;;0.10;0.10;;;;;;;-145.06;100.00;63404.56;10356223;28;20520;-67
2022/05/20 03:46:47;;;;;;;0.10;0.10;;;;;;;-145.06;100.00;63404.56;10367151;28;20040;-67
2022/05/20 03:51:49;;;;;;;0.20;0.20;;;;;;;-145.06;100.00;63404.56;10356295;28;20300;-67
2022/05/20 03:56:49;;;;;;;0.10;0.10;;;;;;;-145.06;100.00;63404.56;10359922;28;20026;-67
2022/05/20 04:01:58;;;;;;;0.10;0.10;;;;;;;-145.06;100.00;63404.56;10358174;28;20072;-66
2022/05/20 04:07:01;;;;;;;0.10;0.10;;;;;;;-145.06;100.00;63404.56;10352764;28;20058;-67
2022/05/20 04:12:04;;;;;;;0.10;0.10;;;;;;;-145.06;100.00;63404.56;10350325;28;20099;-67
2022/05/20 04:17:04;;;;;;;0.10;0.10;;;;;;;-145.06;100.00;63404.56;10352646;28;20025;-67
2022/05/20 04:22:08;;;;;;;0.10;0.10;;;;;;;-145.06;100.00;63404.56;10352972;28;20023;-67
2022/05/20 04:27:08;;;;;;;0.10;0.10;;;;;;;-145.06;100.00;63404.56;10347203;28;20022;-67
2022/05/20 04:32:09;;;;;;;0.10;0.10;;;;;;;-145.06;100.00;63404.56;10346196;28;20022;-68
2022/05/20 04:37:09;;;;;;;0.10;0.10;;;;;;;-145.06;100.00;63404.56;10408795;22;20034;-91
2022/05/20 04:47:33;;;;;;;0.10;0.10;;;;;;;-145.06;100.00;63404.56;10450035;28;20013;-91
2022/05/20 04:52:33;;;;;;;0.10;0.10;;;;;;;-145.06;100.00;63404.56;10448085;28;20035;-92
2022/05/20 04:57:37;;;;;;;0.10;0.10;;;;;;;-145.06;100.00;63404.56;10458430;28;20012;-91
2022/05/20 05:02:38;;;;;;;0.10;0.10;;;;;;;-145.06;100.00;63404.56;10444517;28;20002;-91
2022/05/20 05:07:40;;;;;;;0.08;0.08;;;;;;;-145.06;100.00;63404.56;10445980;28;20025;-91
2022/05/20 05:12:41;;;;;;;0.10;0.10;;;;;;;-145.06;100.00;63404.56;10459694;28;20009;-91
2022/05/20 05:23:01;;;;;;;0.10;0.10;;;;;;;-145.06;100.00;63404.56;10448049;28;20034;-91
2022/05/20 05:28:03;;;;;;;0.10;0.10;;;;;;;-145.06;100.00;63404.56;10452238;28;20014;-91
2022/05/20 05:33:03;;;;;;;0.10;0.10;;;;;;;-145.06;100.00;63404.56;10450802;28;20029;-91
2022/05/20 05:38:04;;;;;;;0.10;0.10;;;;;;;-145.06;100.00;63404.56;10445067;28;20061;-92
2022/05/20 05:43:04;;;;;;;0.10;0.10;;;;;;;-145.06;100.00;63404.56;10443606;28;20037;-91
2022/05/20 05:48:08;;;;;;;0.10;0.10;;;;;;;-145.06;100.00;63404.56;10442792;28;20037;-92
2022/05/20 05:53:14;;;;;;;0.10;0.10;;;;;;;-145.06;100.00;63404.56;10431760;28;20029;-93
2022/05/20 05:58:15;;;;;;;0.10;0.10;;;;;;;-145.06;100.00;63404.56;10435074;28;20033;-92
2022/05/20 06:03:16;;;;;;;0.10;0.10;;;;;;;-145.06;100.00;63404.56;10421843;28;20025;-92
2022/05/20 06:08:16;;;;;;;0.03;0.03;;;;;;;-145.06;100.00;63404.56;10422672;28;20044;-92
2022/05/20 06:13:29;;;;;;;0.10;0.10;;;;;;;-145.06;100.00;63404.56;10441085;28;20108;-91
2022/05/20 06:18:29;;;;;;;0.10;0.10;;;;;;;-145.06;100.00;63404.56;10430792;28;20017;-93
2022/05/20 06:23:30;;;;;;;0.10;0.10;;;;;;;-145.06;100.00;63404.56;10492813;28;20036;-92
2022/05/20 06:28:30;;;;;;;0.03;0.03;;;;;;;-145.06;100.00;63404.56;10484775;28;20045;-91
2022/05/20 06:33:31;;;;;;;0.10;0.10;;;;;;;-145.06;100.00;63404.56;10471209;28;20064;-91
2022/05/20 06:43:50;;;;;;;0.00;0.00;;;;;;;-145.06;100.00;63404.56;10422493;28;20257;-93
2022/05/20 06:48:53;;;;;;;0.00;0.00;;;;;;;-145.06;100.00;63404.56;10427320;28;20505;-93
2022/05/20 06:53:56;;;;;;;0.00;0.00;;;;;;;-145.06;100.00;63404.56;10423154;28;20002;-92
2022/05/20 06:59:01;;;;;;;0.10;0.10;;;;;;;-145.06;100.00;63404.56;10429198;28;20093;-91
2022/05/20 07:04:02;;;;;;;0.10;0.10;;;;;;;-145.06;100.00;63404.56;10428595;28;20022;-92
2022/05/20 07:09:04;;;;;;;0.10;0.10;;;;;;;-145.06;100.00;63404.56;10415543;28;20026;-92
2022/05/20 07:14:05;;;;;;;0.10;0.10;;;;;;;-145.06;100.00;63404.56;10418105;28;20041;-93
2022/05/20 07:19:05;;;;;;;0.10;0.10;;;;;;;-145.06;100.00;63404.56;10425216;28;20029;-92
2022/05/20 07:24:06;;;;;;;0.00;0.00;;;;;;;-145.06;100.00;63404.56;10421902;28;20036;-93
2022/05/20 07:29:08;;;;;;;0.00;0.00;;;;;;;-145.06;100.00;63404.56;10415202;28;20022;-92
2022/05/20 07:34:09;;;;;;;0.10;0.10;;;;;;;-145.06;100.00;63404.56;10412542;28;20030;-93
2022/05/20 07:39:09;;;;;;;0.03;0.03;;;;;;;-145.06;100.00;63404.56;10405840;28;20478;-92
2022/05/20 07:44:09;;;;;;;0.10;0.10;;;;;;;-145.06;100.00;63404.56;10416783;28;20036;-93
2022/05/20 07:49:10;;;;;;;0.00;0.00;;;;;;;-145.06;100.00;63404.56;10416445;28;20001;-92
2022/05/20 07:54:15;;;;;;;0.10;0.10;;;;;;;-145.06;100.00;63404.56;10422293;28;20044;-92
2022/05/20 07:59:19;;;;;;;0.00;0.00;;;;;;;-145.06;100.00;63404.56;10414619;28;20025;-92
2022/05/20 08:10:22;;;;;;;0.00;0.00;;;;;;;-145.06;100.00;63404.56;10412056;28;20505;-87
2022/05/20 08:15:24;;;;;;;0.00;0.00;;;;;;;-145.06;100.00;63404.56;10460101;28;20067;-87
2022/05/20 08:20:27;;;;;;;0.00;0.00;;;;;;;-145.06;100.00;63404.56;10456909;28;20412;-88
2022/05/20 08:25:28;;;;;;;0.10;0.10;;;;;;;-145.06;100.00;63404.56;10448114;28;20017;-88
2022/05/20 08:30:29;;;;;;;0.10;0.10;;;;;;;-145.06;100.00;63404.56;10459725;28;20370;-87
2022/05/20 08:35:29;;;;;;;0.00;0.00;;;;;;;-145.06;100.00;63404.56;10451804;28;20010;-92
2022/05/20 08:40:42;;;;;;;0.10;0.10;;;;;;;-145.06;100.00;63404.56;10449822;28;20081;-93
2022/05/20 08:45:42;;;;;;;0.00;0.00;;;;;;;-145.06;100.00;63404.56;10448838;28;20020;-92
2022/05/20 08:50:49;;;;;;;0.00;0.00;;;;;;;-145.06;100.00;63404.56;10444151;28;20090;-92
2022/05/20 08:55:49;;;;;;;0.00;0.00;;;;;;;-145.06;100.00;63404.56;10443383;28;20037;-93
2022/05/20 09:00:50;;;;;;;0.00;0.00;;;;;;;-145.06;100.00;63404.56;10442966;28;20045;-93
2022/05/20 09:06:03;;;;;;;0.00;0.00;;;;;;;-145.06;100.00;63404.56;10447525;28;20018;-92
2022/05/20 09:11:10;;;;;;;0.10;0.10;;;;;;;-145.06;100.00;63404.56;10443546;28;20010;-92
2022/05/20 09:16:14;;;;;;;0.00;0.00;;;;;;;-145.06;100.00;63404.56;10443128;28;20014;-92
2022/05/20 09:21:28;;;;;;;0.00;0.00;;;;;;;-145.06;100.00;63404.56;10448247;28;20033;-92
2022/05/20 09:26:37;;;;;;;0.00;0.00;;;;;;;-145.06;100.00;63404.56;10448036;28;20081;-93
2022/05/20 09:31:53;;;;;;;0.00;0.00;;;;;;;-145.06;100.00;63404.56;10445800;28;20013;-93
2022/05/20 09:37:03;;;;;;;0.00;0.00;;;;;;;-145.06;100.00;63404.56;10445810;28;20033;-92
2022/05/20 09:42:17;;;;;;;0.00;0.00;;;;;;;-145.06;100.00;63404.56;10454129;28;20017;-93
2022/05/20 09:47:33;;;;;;;0.00;0.00;;;;;;;-145.06;100.00;63404.56;10441504;28;20002;-92
2022/05/20 09:52:51;;;;;;;0.00;0.00;;;;;;;-145.06;100.00;63404.56;10438929;28;20117;-93
2022/05/20 09:57:55;;;;;;;0.00;0.00;;;;;;;-145.06;100.00;63404.56;10443978;28;20014;-92
2022/05/20 10:03:09;;;;;;;0.10;0.10;;;;;;;-145.06;100.00;63404.56;10441094;28;20033;-92
2022/05/20 10:08:45;;;;;;;0.00;0.00;;;;;;;-145.06;100.00;63404.56;10454983;22;20492;-64
2022/05/20 10:14:07;;;;;;;0.00;0.00;;;;;;;-145.06;100.00;63404.56;10370551;28;20548;-65
2022/05/20 10:19:13;;;;;;;0.00;0.00;;;;;;;-145.06;100.00;63404.56;10375006;28;20052;-65
2022/05/20 10:24:41;;;;;;;0.00;0.00;;;;;;;-145.06;100.00;63404.56;10369440;28;20018;-65
2022/05/20 10:35:42;;;;;;;0.00;0.00;;;;;;;-145.06;100.00;63404.56;10372652;28;20026;-65
2022/05/20 10:41:16;;;;;;;0.00;0.00;;;;;;;-145.06;100.00;63404.56;10374940;28;20031;-65
2022/05/20 10:51:54;;;;;;;0.00;0.00;;;;;;;-145.06;100.00;63404.56;10379104;22;20054;-65
2022/05/20 10:57:04;;;;;;;0.00;0.00;;;;;;;-145.06;100.00;63404.56;10363856;28;20034;-65
2022/05/20 11:02:36;;;;;;;0.00;0.00;;;;;;;-145.06;100.00;63404.56;10367485;28;20101;-66
2022/05/20 11:07:45;;;;;;;0.00;0.00;;;;;;;-145.06;100.00;63404.56;10363961;28;20021;-66
2022/05/20 11:13:23;;;;;;;0.00;0.00;;;;;;;-145.06;100.00;63404.56;10365463;28;20032;-66
2022/05/20 11:18:34;;;;;;;0.00;0.00;;;;;;;-145.06;100.00;63404.56;10362899;28;20387;-66
2022/05/20 11:23:58;;;;;;;0.00;0.00;;;;;;;-145.06;100.00;63404.56;10366159;28;21491;-66
2022/05/20 11:29:11;;;;;;;0.00;0.00;;;;;;;-145.06;100.00;63404.56;10359101;28;20061;-65
2022/05/20 11:34:42;;;;;;;0.00;0.00;;;;;;;-145.06;100.00;63404.56;10364297;28;20057;-64
2022/05/20 11:39:45;;;;;;;0.00;0.00;;;;;;;-145.06;100.00;63404.56;10370387;28;20148;-65
2022/05/20 11:45:11;;;;;;;0.00;0.00;;;;;;;-145.06;100.00;63404.56;10377481;28;20017;-65
2022/05/20 11:50:35;;;;;;;0.00;0.00;;;;;;;-145.06;100.00;63404.56;10408613;28;20033;-64
2022/05/20 11:55:56;;;;;;;0.00;0.00;;;;;;;-145.06;100.00;63404.56;10407537;28;20034;-65
2022/05/20 12:00:58;;;;;;;0.00;0.00;;;;;;;-145.06;100.00;63404.56;10410950;28;20053;-65
2022/05/20 12:06:00;;;;;;;0.03;0.03;;;;;;;-145.06;100.00;63404.56;10415674;28;20072;-65
2022/05/20 12:11:20;;;;;;;0.10;0.10;;;;;;;-145.06;100.00;63404.56;10399351;28;20026;-64
2022/05/20 12:16:21;;;;;;;0.00;0.00;;;;;;;-145.06;100.00;63404.56;10401995;28;20068;-65
2022/05/20 12:27:11;;;;;;;0.00;0.00;;;;;;;-145.06;100.00;63404.56;10347843;28;20029;-65
2022/05/20 12:32:42;;;;;;;0.00;0.00;;;;;;;-145.06;100.00;63404.56;10374062;28;20025;-65
2022/05/20 12:37:43;;;;;;;0.10;0.10;;;;;;;-145.06;100.00;63404.56;10372937;28;20058;-65
2022/05/20 12:43:08;;;;;;;0.00;0.00;;;;;;;-145.06;100.00;63404.56;10373583;28;20239;-65
2022/05/20 12:48:09;;;;;;;0.00;0.00;;;;;;;-145.06;100.00;63404.56;10367632;28;20054;-65
2022/05/20 12:53:12;;;;;;;0.00;0.00;;;;;;;-145.06;100.00;63404.56;10373022;28;20089;-65
2022/05/20 12:58:15;;;;;;;0.00;0.00;;;;;;;-145.06;100.00;63404.56;10372652;28;20053;-65
2022/05/20 13:03:18;;;;;;;0.00;0.00;;;;;;;-145.06;100.00;63404.56;10372926;28;20033;-65
2022/05/20 13:08:22;;;;;;;0.00;0.00;;;;;;;-145.06;100.00;63404.56;10372800;28;20029;-65
2022/05/20 13:13:28;;;;;;;0.10;0.10;;;;;;;-145.06;100.00;63404.56;10391925;28;20032;-65
2022/05/20 13:18:41;;;;;;;0.00;0.00;;;;;;;-145.06;100.00;63404.56;10387546;28;20127;-65
2022/05/20 13:23:43;;;;;;;0.00;0.00;;;;;;;-145.06;100.00;63404.56;10375143;28;20484;-66
2022/05/20 13:28:43;;;;;;;0.00;0.00;;;;;;;-145.06;100.00;63404.56;10371567;28;20057;-65
2022/05/20 13:33:44;;;;;;;0.00;0.00;;;;;;;-145.06;100.00;63404.56;10369154;28;20181;-66
2022/05/20 13:38:51;;;;;;;0.00;0.00;;;;;;;-145.06;100.00;63404.56;10369974;28;20038;-65
2022/05/20 13:43:53;;;;;;;0.00;0.00;;;;;;;-145.06;100.00;63404.56;10368269;28;20393;-65
2022/05/20 13:49:13;;;;;;;0.00;0.00;;;;;;;-145.06;100.00;63404.56;10367778;28;20438;-66
2022/05/20 13:54:18;;;;;;;0.00;0.00;;;;;;;-145.06;100.00;63404.56;10369157;28;20036;-65
2022/05/20 13:59:28;;;;;;;0.00;0.00;;;;;;;-145.06;100.00;63404.56;10366922;28;20105;-66
2022/05/20 14:04:42;;;;;;;0.00;0.00;;;;;;;-145.06;100.00;63404.56;10364518;28;20013;-65
2022/05/20 14:09:58;;;;;;;0.00;0.00;;;;;;;-145.06;100.00;63404.56;10366268;28;20036;-65
2022/05/20 14:15:23;;;;;;;0.00;0.00;;;;;;;-145.06;100.00;63404.56;10363627;28;20552;-66
2022/05/20 14:20:25;;;;;;;0.00;0.00;;;;;;;-145.06;100.00;63404.56;10364436;28;20022;-66
2022/05/20 14:25:31;;;;;;;0.00;0.00;;;;;;;-145.06;100.00;63404.56;10364907;28;20029;-66
2022/05/20 14:30:40;;;;;;;0.00;0.00;;;;;;;-145.06;100.00;63404.56;10368339;28;20493;-66
2022/05/20 14:35:46;;;;;;;0.00;0.00;;;;;;;-145.06;100.00;63404.56;10365395;28;20017;-66
2022/05/20 14:40:51;;;;;;;0.00;0.00;;;;;;;-145.06;100.00;63404.56;10367571;28;20432;-66
2022/05/20 14:45:58;;;;;;;0.00;0.00;;;;;;;-145.06;100.00;63404.56;10368743;28;20021;-66
2022/05/20 14:50:58;;;;;;;0.00;0.00;;;;;;;-145.06;100.00;63404.56;10367377;28;20030;-66
2022/05/20 14:56:01;;;;;;;0.00;0.00;;;;;;;-145.06;100.00;63404.56;10364719;28;20030;-66
2022/05/20 15:01:11;;;;;;;0.00;0.00;;;;;;;-145.06;100.00;63404.56;10369102;28;20335;-66
2022/05/20 15:06:21;;;;;;;0.00;0.00;;;;;;;-145.06;100.00;63404.56;10368507;28;20113;-66
2022/05/20 15:11:27;;;;;;;0.10;0.10;;;;;;;-145.06;100.00;63404.56;10368081;28;20113;-66
2022/05/20 15:16:27;;;;;;;0.10;0.10;;;;;;;-145.06;100.00;63404.56;10368313;28;20029;-66
2022/05/20 15:21:32;;;;;;;0.00;0.00;;;;;;;-145.06;100.00;63404.56;10368363;28;20030;-66
2022/05/20 15:26:36;;;;;;;0.00;0.00;;;;;;;-145.06;100.00;63404.56;10366828;28;20099;-66
2022/05/20 15:37:07;;;;;;;0.10;0.10;;;;;;;-145.06;100.00;63404.56;10372033;28;20034;-66
2022/05/20 15:42:10;;;;;;;0.00;0.00;;;;;;;-145.06;100.00;63404.56;10374989;28;20040;-66
2022/05/20 15:47:12;;;;;;;0.10;0.10;;;;;;;-145.06;100.00;63404.56;10375149;28;20037;-66
2022/05/20 15:52:17;;;;;;;0.10;0.10;;;;;;;-145.06;100.00;63404.56;10375941;28;20032;-66
2022/05/20 15:57:20;;;;;;;0.10;0.10;;;;;;;-145.06;100.00;63404.56;10374718;28;20026;-66
2022/05/20 16:02:22;;;;;;;;;;;;;;;-145.06;100.00;63404.56;10374496;28;20109;-66
2022/05/20 16:07:22;;;;;;;0.00;0.00;;;;;;;-145.06;100.00;63404.56;10374743;28;19936;-66
2022/05/20 16:12:23;;;;;;;0.08;0.08;;;;;;;-145.06;100.00;63404.56;10400632;28;20028;-66
2022/05/20 16:17:23;;;;;;;0.00;0.00;;;;;;;-145.06;100.00;63404.56;10415277;28;20056;-66
2022/05/20 16:22:28;;;;;;;0.05;0.05;;;;;;;-145.06;100.00;63404.56;10415571;28;20017;-66
2022/05/20 16:27:38;;;;;;;0.10;0.10;;;;;;;-145.06;100.00;63404.56;10414972;28;20056;-66
2022/05/20 16:32:39;;;;;;;0.10;0.10;;;;;;;-145.06;100.00;63404.56;10415576;28;20029;-65
2022/05/20 16:37:39;;;;;;;0.10;0.10;;;;;;;-145.06;100.00;63404.56;10414510;28;20028;-66
2022/05/20 16:42:40;;;;;;;0.00;0.00;;;;;;;-145.06;100.00;63404.56;10384146;28;20061;-66
2022/05/20 16:47:49;;;;;;;0.10;0.10;;;;;;;-145.06;100.00;63404.56;10388179;22;20056;-87
2022/05/20 16:52:50;;;;;;;0.10;0.10;;;;;;;-145.06;100.00;63404.56;10384657;28;20067;-86
2022/05/20 17:03:09;;;;;;;0.10;0.10;;;;;;;-145.06;100.00;63404.56;10392182;28;20052;-87
2022/05/20 17:08:13;;;;;;;0.10;0.10;;;;;;;-145.06;100.00;63404.56;10393525;28;20046;-87
2022/05/20 17:13:17;;;;;;;0.10;0.10;;;;;;;-145.06;100.00;63404.56;10391997;28;20112;-88
2022/05/20 17:18:18;;;;;;;0.10;0.10;;;;;;;-145.06;100.00;63404.56;10389665;28;20162;-86
2022/05/20 17:28:38;;;;;;;0.10;0.10;;;;;;;-145.06;100.00;63404.56;10390783;28;20034;-87
2022/05/20 17:33:38;;;;;;;0.10;0.10;;;;;;;-145.06;100.00;63404.56;10373359;28;20029;-87
2022/05/20 17:38:39;;;;;;;0.10;0.10;;;;;;;-145.06;100.00;63404.56;10392254;28;20041;-87
2022/05/20 17:43:39;;;;;;;0.10;0.10;;;;;;;-145.06;100.00;63404.56;10392157;28;20368;-87
2022/05/20 17:48:41;;;;;;;0.10;0.10;;;;;;;-145.06;100.00;63404.56;10399903;28;20026;-86
2022/05/20 17:53:42;;;;;;;0.03;0.03;;;;;;;-145.06;100.00;63404.56;10377348;28;20081;-86
2022/05/20 17:58:43;;;;;;;0.10;0.10;;;;;;;-145.06;100.00;63404.56;10396264;28;20026;-86
2022/05/20 18:03:46;;;;;;;0.10;0.10;;;;;;;-145.06;100.00;63404.56;10390753;28;20025;-87
2022/05/20 18:08:46;;;;;;;0.10;0.10;;;;;;;-145.06;100.00;63404.56;10371305;28;20025;-87
2022/05/20 18:13:47;;;;;;;0.10;0.10;;;;;;;-145.06;100.00;63404.56;10370967;28;20097;-87
2022/05/20 18:18:47;;;;;;;0.10;0.10;;;;;;;-145.06;100.00;63404.56;10369991;28;20021;-88
2022/05/20 18:23:48;;;;;;;0.10;0.10;;;;;;;-145.06;100.00;63404.56;10370605;28;20020;-85
2022/05/20 18:28:48;;;;;;;0.10;0.10;;;;;;;-145.06;100.00;63404.56;10369077;28;20088;-88
2022/05/20 18:33:48;;;;;;;0.10;0.10;;;;;;;-145.06;100.00;63404.56;10364868;28;20018;-88
2022/05/20 18:44:07;;;;;;;0.00;0.00;;;;;;;-145.06;100.00;63404.56;10385643;28;20389;-87
2022/05/20 18:49:07;;;;;;;0.10;0.10;;;;;;;-145.06;100.00;63404.56;10371545;28;20030;-88
2022/05/20 18:54:08;;;;;;;0.10;0.10;;;;;;;-145.06;100.00;63404.56;10372449;28;20029;-87
2022/05/20 18:59:08;;;;;;;0.10;0.10;;;;;;;-145.06;100.00;63404.56;10384702;28;20049;-86
2022/05/20 19:04:08;;;;;;;0.10;0.10;;;;;;;-145.06;100.00;63404.56;10365660;28;20014;-86
2022/05/20 19:09:09;;;;;;;0.10;0.10;;;;;;;-145.06;100.00;63404.56;10366239;28;20025;-85
2022/05/20 19:14:09;;;;;;;0.10;0.10;;;;;;;-145.06;100.00;63404.56;10382108;28;20487;-87
2022/05/20 19:19:10;;;;;;;0.10;0.10;;;;;;;-145.06;100.00;63404.56;10369078;28;20034;-86
2022/05/20 19:24:10;;;;;;;0.10;0.10;;;;;;;-145.06;100.00;63404.56;10369364;28;20018;-86
2022/05/20 19:29:10;;;;;;;0.00;0.00;;;;;;;-145.06;100.00;63404.56;10371253;28;20426;-85
2022/05/20 19:34:12;;;;;;;0.10;0.10;;;;;;;-145.06;100.00;63404.56;10389411;28;20434;-85
2022/05/20 19:39:12;;;;;;;0.00;0.00;;;;;;;-145.06;100.00;63404.56;10371531;28;20328;-87
2022/05/20 19:44:17;;;;;;;0.10;0.10;;;;;;;-145.06;100.00;63404.56;10393434;28;20026;-87
2022/05/20 19:49:18;;;;;;;0.10;0.10;;;;;;;-145.06;100.00;63404.56;10373155;28;20041;-85
2022/05/20 19:54:19;;;;;;;0.10;0.10;;;;;;;-145.06;100.00;63404.56;10371567;28;20029;-86
2022/05/20 20:05:11;;;;;;;0.05;0.05;;;;;;;-145.06;100.00;63404.56;10380944;28;20061;-86
2022/05/20 20:10:11;;;;;;;0.10;0.10;;;;;;;-145.06;100.00;63404.56;10366225;28;20026;-85
2022/05/20 20:15:11;;;;;;;0.10;0.10;;;;;;;-145.06;100.00;63404.56;10385227;28;20033;-85
2022/05/20 20:20:12;;;;;;;0.10;0.10;;;;;;;-145.06;100.00;63404.56;10362616;28;20026;-86
2022/05/20 20:30:31;;;;;;;0.10;0.10;;;;;;;-145.06;100.00;63404.56;10377927;28;20025;-88
2022/05/20 20:35:31;;;;;;;0.10;0.10;;;;;;;-145.06;100.00;63404.56;10368115;28;20055;-89
2022/05/20 20:40:32;;;;;;;0.10;0.10;;;;;;;-145.06;100.00;63404.56;10377000;28;20022;-88
2022/05/20 20:45:32;;;;;;;0.10;0.10;;;;;;;-145.06;100.00;63404.56;10366563;28;20025;-88
2022/05/20 20:50:34;;;;;;;0.10;0.10;;;;;;;-145.06;100.00;63404.56;10367315;28;20049;-89
2022/05/20 20:55:35;;;;;;;0.10;0.10;;;;;;;-145.06;100.00;63404.56;10366360;28;20025;-89
2022/05/20 21:00:35;;;;;;;0.10;0.10;;;;;;;-145.06;100.00;63404.56;10366561;28;20025;-88
2022/05/20 21:05:37;;;;;;;0.10;0.10;;;;;;;-145.06;100.00;63404.56;10375636;28;20020;-89
2022/05/20 21:10:37;;;;;;;0.00;0.00;;;;;;;-145.06;100.00;63404.56;10375406;28;20037;-87
2022/05/20 21:15:39;;;;;;;0.10;0.10;;;;;;;-145.06;100.00;63404.56;10375229;28;20030;-88
2022/05/20 21:20:43;;;;;;;0.05;0.05;;;;;;;-145.06;100.00;63404.56;10372873;28;20041;-88
2022/05/20 21:25:44;;;;;;;0.10;0.10;;;;;;;-145.06;100.00;63404.56;10368934;28;20052;-89
2022/05/20 21:30:44;;;;;;;0.10;0.10;;;;;;;-145.06;100.00;63404.56;10367121;28;20065;-89
2022/05/20 21:35:45;;;;;;;0.10;0.10;;;;;;;-145.06;100.00;63404.56;10365687;28;20026;-88
2022/05/20 21:40:45;;;;;;;0.10;0.10;;;;;;;-145.06;100.00;63404.56;10365532;28;20083;-89
2022/05/20 21:45:47;;;;;;;0.10;0.10;;;;;;;-145.06;100.00;63404.56;10376370;28;20105;-88
2022/05/20 21:50:49;;;;;;;0.10;0.10;;;;;;;-145.06;100.00;63404.56;10366506;28;20180;-88
2022/05/20 21:55:49;;;;;;;0.10;0.10;;;;;;;-145.06;100.00;63404.56;10365559;28;20030;-88
2022/05/20 22:11:31;;;;;;;0.10;0.10;;;;;;;-145.06;100.00;63404.56;10373679;28;20034;-89
2022/05/20 22:16:31;;;;;;;0.10;0.10;;;;;;;-145.06;100.00;63404.56;10365113;28;20029;-88
2022/05/20 22:21:33;;;;;;;0.08;0.08;;;;;;;-145.06;100.00;63404.56;10364645;28;20038;-88
2022/05/20 22:26:34;;;;;;;0.10;0.10;;;;;;;-145.06;100.00;63404.56;10364381;28;20108;-88
2022/05/20 22:31:34;;;;;;;0.10;0.10;;;;;;;-145.06;100.00;63404.56;10364076;28;20029;-88
2022/05/20 22:36:35;;;;;;;0.03;0.03;;;;;;;-145.06;100.00;63404.56;10363107;28;20387;-89
2022/05/20 22:41:35;;;;;;;0.00;0.00;;;;;;;-145.06;100.00;63404.56;10371671;28;20048;-89
2022/05/20 22:46:35;;;;;;;0.10;0.10;;;;;;;-145.06;100.00;63404.56;10372656;28;20045;-89
2022/05/20 22:51:36;;;;;;;0.10;0.10;;;;;;;-145.06;100.00;63404.56;10337607;22;20447;-91
2022/05/20 22:56:37;;;;;;;0.10;0.10;;;;;;;-145.06;100.00;63404.56;10319580;28;20045;-91
2022/05/20 23:01:40;;;;;;;0.10;0.10;;;;;;;-145.06;100.00;63404.56;10315430;28;20014;-90
2022/05/20 23:06:40;;;;;;;0.10;0.10;;;;;;;-145.06;100.00;63404.56;10309758;28;20128;-91
2022/05/20 23:11:41;;;;;;;0.10;0.10;;;;;;;-145.06;100.00;63404.56;10311759;28;20649;-90
2022/05/20 23:16:41;;;;;;;0.10;0.10;;;;;;;-145.06;100.00;63404.56;10309104;28;20042;-90
2022/05/20 23:21:41;;;;;;;0.10;0.10;;;;;;;-145.06;100.00;63404.56;10309094;28;20035;-91
2022/05/20 23:26:42;;;;;;;0.00;0.00;;;;;;;-145.06;100.00;63404.56;10308517;28;20073;-89
2022/05/20 23:31:42;;;;;;;0.10;0.10;;;;;;;-145.06;100.00;63404.56;10308079;28;20037;-89
2022/05/20 23:36:44;;;;;;;0.10;0.10;;;;;;;-145.06;100.00;63404.56;10306656;28;20042;-91
2022/05/20 23:41:45;;;;;;;0.10;0.10;;;;;;;-145.06;100.00;63404.56;10309554;28;20031;-90
2022/05/20 23:46:45;;;;;;;0.00;0.00;;;;;;;-145.06;100.00;63404.56;10307116;28;20489;-91
2022/05/20 23:51:47;;;;;;;0.10;0.10;;;;;;;-145.06;100.00;63404.56;10311385;28;20026;-91
2022/05/20 23:57:06;;;;;;;0.10;0.10;;;;;;;-145.06;100.00;63404.56;10314392;28;20513;-91
